Time;durP1;ratioP1;P1;durP2;ratioP2;P2;SDS_P1;SDS_P2;PMS_P1;PMS_P2;Temp;Humidity;BMP_temperature;BMP_pressure;BME280_temperature;BME280_humidity;BME280_pressure;Samples;Min_cycle;Max_cycle;Signal;HPM_P1;HPM_P2
2021/12/02 00:02:07;;;;;;;;;;;;;;;;;;5097672;28;19958;-77
2021/12/02 00:04:33;;;;;;;;;;;;;;;;;;5096200;28;19962;-77
2021/12/02 00:06:59;;;;;;;;;;;;;;;;;;5093330;28;19920;-77
2021/12/02 00:09:24;;;;;;;;;;;;;;;;;;5075807;28;20294;-77
2021/12/02 00:11:50;;;;;;;;;;;;;;;;;;5074725;28;20027;-77
2021/12/02 00:14:22;;;;;;;;;;;;;;;;;;5075826;28;19920;-77
2021/12/02 00:22:09;;;;;;;;;;;;;;;;;;5075817;28;19917;-77
2021/12/02 00:24:35;;;;;;;;;;;;;;;;;;5075512;28;20053;-77
2021/12/02 00:27:03;;;;;;;;;;;;;;;;;;5075588;28;19925;-77
2021/12/02 00:29:29;;;;;;;;;;;;;;;;;;5074323;28;19916;-77
2021/12/02 00:31:54;;;;;;;;;;;;;;;;;;5075166;28;19916;-77
2021/12/02 00:34:20;;;;;;;;;;;;;;;;;;5075219;28;20406;-77
2021/12/02 00:36:46;;;;;;;;;;;;;;;;;;5075379;28;20015;-77
2021/12/02 00:39:12;;;;;;;;;;;;;;;;;;5095213;28;19948;-77
2021/12/02 00:41:38;;;;;;;;;;;;;;;;;;5095597;28;19919;-78
2021/12/02 00:44:03;;;;;;;;;;;;;;;;;;5093979;28;19920;-77
2021/12/02 00:46:33;;;;;;;;;;;;;;;;;;5095158;28;19924;-77
2021/12/02 00:49:02;;;;;;;;;;;;;;;;;;5093754;28;19916;-78
2021/12/02 00:51:28;;;;;;;;;;;;;;;;;;5095348;28;19916;-77
2021/12/02 00:53:54;;;;;;;;;;;;;;;;;;5095359;28;19982;-77
2021/12/02 00:56:24;;;;;;;;;;;;;;;;;;5095304;28;19963;-77
2021/12/02 00:58:49;;;;;;;;;;;;;;;;;;5094284;28;20305;-77
2021/12/02 01:01:16;;;;;;;;;;;;;;;;;;5095152;28;19916;-78
2021/12/02 01:03:42;;;;;;;;;;;;;;;;;;5094736;28;20517;-77
2021/12/02 01:06:07;;;;;;;;;;;;;;;;;;5093961;28;20019;-77
2021/12/02 01:08:33;;;;;;;;;;;;;;;;;;5095072;28;19916;-77
2021/12/02 01:10:58;;;;;;;;;;;;;;;;;;5095259;28;19916;-77
2021/12/02 01:13:24;;;;;;;;;;;;;;;;;;5095034;28;20345;-77
2021/12/02 01:15:49;;;;;;;;;;;;;;;;;;5094795;28;19916;-77
2021/12/02 01:18:15;;;;;;;;;;;;;;;;;;5094736;28;19969;-78
2021/12/02 01:20:42;;;;;;;;;;;;;;;;;;5094871;28;20312;-77
2021/12/02 01:23:08;;;;;;;;;;;;;;;;;;5094811;28;19916;-77
2021/12/02 01:25:34;;;;;;;;;;;;;;;;;;5094577;28;19916;-77
2021/12/02 01:27:59;;;;;;;;;;;;;;;;;;5094437;28;19932;-77
2021/12/02 01:30:26;;;;;;;;;;;;;;;;;;5094763;28;19986;-78
2021/12/02 01:32:52;;;;;;;;;;;;;;;;;;5094524;28;20385;-78
2021/12/02 01:35:19;;;;;;;;;;;;;;;;;;5084009;28;19955;-78
2021/12/02 01:37:45;;;;;;;;;;;;;;;;;;5074049;28;20366;-77
2021/12/02 01:40:12;;;;;;;;;;;;;;;;;;5074176;28;19921;-77
2021/12/02 01:42:39;;;;;;;;;;;;;;;;;;5074277;28;19925;-77
2021/12/02 01:45:05;;;;;;;;;;;;;;;;;;5075119;28;20405;-77
2021/12/02 01:47:32;;;;;;;;;;;;;;;;;;5094223;28;19920;-78
2021/12/02 01:49:59;;;;;;;;;;;;;;;;;;5094254;28;19986;-77
2021/12/02 01:52:26;;;;;;;;;;;;;;;;;;5094321;28;19963;-77
2021/12/02 01:55:00;;;;;;;;;;;;;;;;;;5093912;28;20459;-77
2021/12/02 01:57:27;;;;;;;;;;;;;;;;;;5093349;28;20358;-77
2021/12/02 02:00:01;;;;;;;;;;;;;;;;;;5093754;28;20437;-77
2021/12/02 02:02:27;;;;;;;;;;;;;;;;;;5092473;28;19923;-77
2021/12/02 02:04:52;;;;;;;;;;;;;;;;;;5093741;28;20262;-77
2021/12/02 02:07:18;;;;;;;;;;;;;;;;;;5073833;28;19981;-77
2021/12/02 02:09:44;;;;;;;;;;;;;;;;;;5073729;28;19923;-77
2021/12/02 02:12:11;;;;;;;;;;;;;;;;;;5073857;28;19939;-77
2021/12/02 02:14:36;;;;;;;;;;;;;;;;;;5080526;28;19920;-78
2021/12/02 02:17:09;;;;;;;;;;;;;;;;;;5093742;28;19916;-77
2021/12/02 02:19:34;;;;;;;;;;;;;;;;;;5094236;28;20317;-77
2021/12/02 02:22:00;;;;;;;;;;;;;;;;;;5093961;28;19920;-77
2021/12/02 02:24:25;;;;;;;;;;;;;;;;;;5093851;28;19922;-77
2021/12/02 02:26:51;;;;;;;;;;;;;;;;;;5093777;28;20273;-77
2021/12/02 02:29:18;;;;;;;;;;;;;;;;;;5093902;28;19973;-78
2021/12/02 02:31:44;;;;;;;;;;;;;;;;;;5093919;28;19916;-77
2021/12/02 02:34:10;;;;;;;;;;;;;;;;;;5083238;28;19923;-77
2021/12/02 02:36:40;;;;;;;;;;;;;;;;;;5073479;28;19916;-77
2021/12/02 02:39:06;;;;;;;;;;;;;;;;;;5073533;28;19970;-78
2021/12/02 02:41:35;;;;;;;;;;;;;;;;;;5072061;28;19917;-77
2021/12/02 02:44:01;;;;;;;;;;;;;;;;;;5072108;28;19925;-77
2021/12/02 02:46:28;;;;;;;;;;;;;;;;;;5072916;28;19920;-77
2021/12/02 02:48:54;;;;;;;;;;;;;;;;;;5073324;28;19970;-77
2021/12/02 02:51:20;;;;;;;;;;;;;;;;;;5081758;28;20011;-77
2021/12/02 02:53:50;;;;;;;;;;;;;;;;;;5093605;28;20235;-77
2021/12/02 02:56:17;;;;;;;;;;;;;;;;;;5093414;28;19916;-77
2021/12/02 02:58:56;;;;;;;;;;;;;;;;;;5092170;28;19963;-77
2021/12/02 03:12:03;;;;;;;;;;;;;;;;;;5094363;28;19920;-77
2021/12/02 03:14:35;;;;;;;;;;;;;;;;;;5097118;28;19938;-77
2021/12/02 03:17:00;;;;;;;;;;;;;;;;;;5097257;28;19916;-77
2021/12/02 03:19:27;;;;;;;;;;;;;;;;;;5096986;28;19923;-77
2021/12/02 03:21:54;;;;;;;;;;;;;;;;;;5097092;28;19923;-77
2021/12/02 03:24:19;;;;;;;;;;;;;;;;;;5095766;28;19919;-77
2021/12/02 03:26:45;;;;;;;;;;;;;;;;;;5096935;28;19920;-77
2021/12/02 03:29:11;;;;;;;;;;;;;;;;;;5096855;28;19993;-77
2021/12/02 03:31:36;;;;;;;;;;;;;;;;;;5095527;28;20274;-77
2021/12/02 03:34:04;;;;;;;;;;;;;;;;;;5096766;28;19916;-78
2021/12/02 03:36:30;;;;;;;;;;;;;;;;;;5095649;28;19916;-77
2021/12/02 03:38:55;;;;;;;;;;;;;;;;;;5095564;28;19916;-77
2021/12/02 03:41:21;;;;;;;;;;;;;;;;;;5096214;28;20027;-77
2021/12/02 03:43:47;;;;;;;;;;;;;;;;;;5095142;28;20362;-77
2021/12/02 03:46:14;;;;;;;;;;;;;;;;;;5096421;28;19996;-78
2021/12/02 03:48:39;;;;;;;;;;;;;;;;;;5096592;28;19923;-78
2021/12/02 03:51:05;;;;;;;;;;;;;;;;;;5096660;28;19916;-77
2021/12/02 03:53:31;;;;;;;;;;;;;;;;;;5096360;28;20007;-77
2021/12/02 03:55:56;;;;;;;;;;;;;;;;;;5096224;28;20018;-77
2021/12/02 03:58:21;;;;;;;;;;;;;;;;;;5096386;28;19916;-78
2021/12/02 04:00:47;;;;;;;;;;;;;;;;;;5096320;28;19920;-77
2021/12/02 04:03:12;;;;;;;;;;;;;;;;;;5099116;28;19916;-77
2021/12/02 04:05:37;;;;;;;;;;;;;;;;;;5116657;28;20437;-77
2021/12/02 04:08:04;;;;;;;;;;;;;;;;;;5116422;28;20377;-77
2021/12/02 04:10:31;;;;;;;;;;;;;;;;;;5116623;28;19926;-77
2021/12/02 04:13:24;;;;;;;;;;;;;;;;;;5114249;28;20372;-77
2021/12/02 04:15:54;;;;;;;;;;;;;;;;;;5116529;28;19974;-77
2021/12/02 04:18:19;;;;;;;;;;;;;;;;;;5115202;28;19923;-77
2021/12/02 04:20:44;;;;;;;;;;;;;;;;;;5116381;28;19916;-77
2021/12/02 04:23:09;;;;;;;;;;;;;;;;;;5115612;28;19927;-77
2021/12/02 04:25:35;;;;;;;;;;;;;;;;;;5116025;28;19920;-77
2021/12/02 04:28:00;;;;;;;;;;;;;;;;;;5116084;28;19924;-77
2021/12/02 04:30:26;;;;;;;;;;;;;;;;;;5116236;28;19915;-77
2021/12/02 04:32:52;;;;;;;;;;;;;;;;;;5115215;28;20422;-78
2021/12/02 04:35:17;;;;;;;;;;;;;;;;;;5095779;28;20010;-77
2021/12/02 04:37:44;;;;;;;;;;;;;;;;;;5095423;28;19927;-77
2021/12/02 04:40:11;;;;;;;;;;;;;;;;;;5095602;28;19916;-78
2021/12/02 04:42:36;;;;;;;;;;;;;;;;;;5095464;28;19962;-77
2021/12/02 04:45:02;;;;;;;;;;;;;;;;;;5095286;28;19920;-77
2021/12/02 04:47:27;;;;;;;;;;;;;;;;;;5095568;28;19920;-77
2021/12/02 04:49:52;;;;;;;;;;;;;;;;;;5094177;28;19962;-77
2021/12/02 04:52:19;;;;;;;;;;;;;;;;;;5095245;28;20319;-78
2021/12/02 04:54:45;;;;;;;;;;;;;;;;;;5094308;28;19927;-77
2021/12/02 04:57:11;;;;;;;;;;;;;;;;;;5095335;28;20274;-78
2021/12/02 04:59:36;;;;;;;;;;;;;;;;;;5095113;28;20381;-77
2021/12/02 05:02:02;;;;;;;;;;;;;;;;;;5095078;28;20377;-77
2021/12/02 05:04:27;;;;;;;;;;;;;;;;;;5095055;28;19923;-77
2021/12/02 05:06:52;;;;;;;;;;;;;;;;;;5095030;28;19924;-77
2021/12/02 05:09:18;;;;;;;;;;;;;;;;;;5094962;28;20069;-77
2021/12/02 05:11:43;;;;;;;;;;;;;;;;;;5095360;28;20274;-77
2021/12/02 05:14:09;;;;;;;;;;;;;;;;;;5092838;28;20401;-77
2021/12/02 05:16:35;;;;;;;;;;;;;;;;;;5094937;28;19969;-78
2021/12/02 05:19:00;;;;;;;;;;;;;;;;;;5094826;28;19920;-77
2021/12/02 05:21:25;;;;;;;;;;;;;;;;;;5094885;28;19916;-77
2021/12/02 05:23:53;;;;;;;;;;;;;;;;;;5094593;28;20427;-77
2021/12/02 05:26:22;;;;;;;;;;;;;;;;;;5109844;28;19965;-77
2021/12/02 05:28:48;;;;;;;;;;;;;;;;;;5115054;28;19923;-77
2021/12/02 05:31:13;;;;;;;;;;;;;;;;;;5114970;28;19915;-77
2021/12/02 05:33:38;;;;;;;;;;;;;;;;;;5113606;28;19974;-77
2021/12/02 05:36:04;;;;;;;;;;;;;;;;;;5114829;28;19977;-77
2021/12/02 05:38:29;;;;;;;;;;;;;;;;;;5114731;28;19963;-77
2021/12/02 05:40:54;;;;;;;;;;;;;;;;;;5114944;28;19916;-77
2021/12/02 05:43:20;;;;;;;;;;;;;;;;;;5114824;28;19920;-77
2021/12/02 05:45:45;;;;;;;;;;;;;;;;;;5113648;28;19919;-77
2021/12/02 05:48:11;;;;;;;;;;;;;;;;;;5109689;28;20302;-77
2021/12/02 05:50:36;;;;;;;;;;;;;;;;;;5093797;28;19920;-77
2021/12/02 05:53:02;;;;;;;;;;;;;;;;;;5093784;28;20015;-78
2021/12/02 05:55:27;;;;;;;;;;;;;;;;;;5093158;28;19977;-78
2021/12/02 05:57:52;;;;;;;;;;;;;;;;;;5093038;28;20444;-78
2021/12/02 06:00:18;;;;;;;;;;;;;;;;;;5092714;28;19922;-77
2021/12/02 06:02:44;;;;;;;;;;;;;;;;;;5094080;28;19923;-77
2021/12/02 06:05:09;;;;;;;;;;;;;;;;;;5091736;28;19951;-77
2021/12/02 06:07:35;;;;;;;;;;;;;;;;;;5092666;28;19955;-77
2021/12/02 06:10:02;;;;;;;;;;;;;;;;;;5092832;28;19920;-77
2021/12/02 06:12:27;;;;;;;;;;;;;;;;;;5094095;28;19923;-77
2021/12/02 06:14:53;;;;;;;;;;;;;;;;;;5093920;28;19916;-77
2021/12/02 06:17:18;;;;;;;;;;;;;;;;;;5094062;28;19916;-77
2021/12/02 06:19:43;;;;;;;;;;;;;;;;;;5094097;28;19976;-77
2021/12/02 06:22:09;;;;;;;;;;;;;;;;;;5094032;28;19923;-78
2021/12/02 06:24:47;;;;;;;;;;;;;;;;;;5093816;28;19916;-77
2021/12/02 06:27:13;;;;;;;;;;;;;;;;;;5092532;28;19966;-77
2021/12/02 06:29:39;;;;;;;;;;;;;;;;;;5093911;28;19912;-77
2021/12/02 06:32:04;;;;;;;;;;;;;;;;;;5093714;28;19916;-77
2021/12/02 06:34:30;;;;;;;;;;;;;;;;;;5101572;28;19920;-77
2021/12/02 06:36:56;;;;;;;;;;;;;;;;;;5092769;28;20007;-78
2021/12/02 06:39:21;;;;;;;;;;;;;;;;;;5095905;28;19924;-77
2021/12/02 06:41:46;;;;;;;;;;;;;;;;;;5097589;28;19923;-78
2021/12/02 06:44:13;;;;;;;;;;;;;;;;;;5086031;28;19920;-79
2021/12/02 06:46:38;;;;;;;;;;;;;;;;;;5104555;28;19920;-79
2021/12/02 06:49:04;;;;;;;;;;;;;;;;;;5114353;28;19983;-79
2021/12/02 06:51:29;;;;;;;;;;;;;;;;;;5088267;28;19916;-78
2021/12/02 06:53:55;;;;;;;;;;;;;;;;;;5097975;28;19928;-77
2021/12/02 06:56:20;;;;;;;;;;;;;;;;;;5099354;28;19920;-78
2021/12/02 06:58:45;;;;;;;;;;;;;;;;;;5101388;28;20019;-80
2021/12/02 07:01:11;;;;;;;;;;;;;;;;;;5101788;28;19942;-78
2021/12/02 07:03:36;;;;;;;;;;;;;;;;;;5097658;28;19916;-78
2021/12/02 07:06:02;;;;;;;;;;;;;;;;;;5080228;28;19916;-80
2021/12/02 07:08:29;;;;;;;;;;;;;;;;;;5081543;28;20270;-80
2021/12/02 07:10:54;;;;;;;;;;;;;;;;;;5080883;28;20374;-79
2021/12/02 07:13:20;;;;;;;;;;;;;;;;;;5081007;28;20015;-79
2021/12/02 07:15:56;;;;;;;;;;;;;;;;;;5080855;28;19916;-79
2021/12/02 07:18:21;;;;;;;;;;;;;;;;;;5081332;28;19924;-79
2021/12/02 07:20:47;;;;;;;;;;;;;;;;;;5079947;28;19917;-78
2021/12/02 07:23:17;;;;;;;;;;;;;;;;;;5079744;28;19916;-77
2021/12/02 07:25:42;;;;;;;;;;;;;;;;;;5080758;28;19917;-77
2021/12/02 07:28:08;;;;;;;;;;;;;;;;;;5075975;28;19920;-76
2021/12/02 07:30:34;;;;;;;;;;;;;;;;;;5075508;28;19912;-76
2021/12/02 07:33:00;;;;;;;;;;;;;;;;;;5075426;28;20427;-76
2021/12/02 07:35:25;;;;;;;;;;;;;;;;;;5076572;28;19916;-77
2021/12/02 07:37:52;;;;;;;;;;;;;;;;;;5086880;28;19987;-76
2021/12/02 07:40:18;;;;;;;;;;;;;;;;;;5096972;28;20003;-76
2021/12/02 07:42:48;;;;;;;;;;;;;;;;;;5096751;28;19951;-76
2021/12/02 07:45:13;;;;;;;;;;;;;;;;;;5096648;28;19924;-77
2021/12/02 07:47:40;;;;;;;;;;;;;;;;;;5096928;28;19921;-77
2021/12/02 07:50:06;;;;;;;;;;;;;;;;;;5098130;28;19923;-77
2021/12/02 07:52:33;;;;;;;;;;;;;;;;;;5098224;28;19916;-77
2021/12/02 07:55:01;;;;;;;;;;;;;;;;;;5096287;28;19991;-76
2021/12/02 07:57:27;;;;;;;;;;;;;;;;;;5097356;28;19916;-76
2021/12/02 07:59:52;;;;;;;;;;;;;;;;;;5096653;28;19969;-76
2021/12/02 08:02:18;;;;;;;;;;;;;;;;;;5096762;28;19916;-75
2021/12/02 08:04:43;;;;;;;;;;;;;;;;;;5094688;28;19916;-74
2021/12/02 08:07:09;;;;;;;;;;;;;;;;;;5093564;28;19927;-75
2021/12/02 08:09:34;;;;;;;;;;;;;;;;;;5075598;28;20534;-77
2021/12/02 08:12:00;;;;;;;;;;;;;;;;;;5075055;28;20065;-77
2021/12/02 08:14:26;;;;;;;;;;;;;;;;;;5075301;28;20002;-77
2021/12/02 08:16:51;;;;;;;;;;;;;;;;;;5074648;28;20409;-76
2021/12/02 08:19:17;;;;;;;;;;;;;;;;;;5075038;28;20448;-76
2021/12/02 08:21:42;;;;;;;;;;;;;;;;;;5076203;28;19928;-77
2021/12/02 08:24:07;;;;;;;;;;;;;;;;;;5075893;28;19917;-77
2021/12/02 08:26:33;;;;;;;;;;;;;;;;;;5075589;28;19963;-76
2021/12/02 08:28:58;;;;;;;;;;;;;;;;;;5075804;28;19916;-77
2021/12/02 08:31:24;;;;;;;;;;;;;;;;;;5073643;28;19924;-77
2021/12/02 08:33:51;;;;;;;;;;;;;;;;;;5073083;28;19924;-77
2021/12/02 08:36:18;;;;;;;;;;;;;;;;;;5085904;28;19961;-77
2021/12/02 08:38:46;;;;;;;;;;;;;;;;;;5093246;28;19916;-77
2021/12/02 08:41:13;;;;;;;;;;;;;;;;;;5093255;28;19923;-77
2021/12/02 08:43:38;;;;;;;;;;;;;;;;;;5091609;28;19916;-77
2021/12/02 08:46:04;;;;;;;;;;;;;;;;;;5092973;28;19966;-77
2021/12/02 08:48:29;;;;;;;;;;;;;;;;;;5095326;28;19922;-77
2021/12/02 08:50:55;;;;;;;;;;;;;;;;;;5095404;28;19938;-77
2021/12/02 08:53:20;;;;;;;;;;;;;;;;;;5095684;28;20484;-76
2021/12/02 08:55:46;;;;;;;;;;;;;;;;;;5095754;28;19923;-77
2021/12/02 08:58:11;;;;;;;;;;;;;;;;;;5095440;28;19923;-78
2021/12/02 09:00:39;;;;;;;;;;;;;;;;;;5094542;28;20068;-77
2021/12/02 09:03:06;;;;;;;;;;;;;;;;;;5094839;28;19916;-77
2021/12/02 09:05:32;;;;;;;;;;;;;;;;;;5094752;28;19923;-77
2021/12/02 09:07:57;;;;;;;;;;;;;;;;;;5095104;28;19926;-77
2021/12/02 09:10:23;;;;;;;;;;;;;;;;;;5094150;28;19916;-77
2021/12/02 09:12:49;;;;;;;;;;;;;;;;;;5095191;28;20007;-77
2021/12/02 09:15:15;;;;;;;;;;;;;;;;;;5094889;28;20416;-77
2021/12/02 09:17:42;;;;;;;;;;;;;;;;;;5094982;28;19916;-77
2021/12/02 09:20:08;;;;;;;;;;;;;;;;;;5095130;28;19916;-77
2021/12/02 09:22:33;;;;;;;;;;;;;;;;;;5082139;28;19922;-76
2021/12/02 09:24:59;;;;;;;;;;;;;;;;;;5074795;28;20003;-76
2021/12/02 09:27:24;;;;;;;;;;;;;;;;;;5076848;28;19920;-79
2021/12/02 09:29:50;;;;;;;;;;;;;;;;;;5079124;28;19920;-80
2021/12/02 09:32:15;;;;;;;;;;;;;;;;;;5087813;28;19916;-80
2021/12/02 09:34:40;;;;;;;;;;;;;;;;;;5085209;28;20271;-80
2021/12/02 09:37:06;;;;;;;;;;;;;;;;;;5081323;28;19920;-80
2021/12/02 09:39:34;;;;;;;;;;;;;;;;;;5078744;28;19917;-78
2021/12/02 09:42:00;;;;;;;;;;;;;;;;;;5076835;28;19923;-79
2021/12/02 09:44:25;;;;;;;;;;;;;;;;;;5076238;28;19927;-76
2021/12/02 09:46:50;;;;;;;;;;;;;;;;;;5106176;28;19924;-76
2021/12/02 09:49:16;;;;;;;;;;;;;;;;;;5115205;28;20366;-76
2021/12/02 09:51:59;;;;;;;;;;;;;;;;;;5114524;28;20218;-77
2021/12/02 09:54:49;;;;;;;;;;;;;;;;;;5116154;28;19915;-77
2021/12/02 09:57:18;;;;;;;;;;;;;;;;;;5118423;28;19958;-78
2021/12/02 10:02:12;;;;;;;;;;;;;;;;;;5116271;28;19916;-77
2021/12/02 10:04:43;;;;;;;;;;;;;;;;;;5113363;28;19920;-77
2021/12/02 10:08:02;;;;;;;;;;;;;;;;;;5114612;28;19920;-78
2021/12/02 10:10:13;;;;;;;;;;;;;;;;;;5107279;28;19916;-76
2021/12/02 10:12:50;;;;;;;;;;;;;;;;;;5094141;28;19942;-77
2021/12/02 10:15:17;;;;;;;;;;;;;;;;;;5093618;28;19916;-77
2021/12/02 10:17:51;;;;;;;;;;;;;;;;;;5096229;28;19916;-78
2021/12/02 10:23:10;;;;;;;;;;;;;;;;;;5094641;28;19923;-80
2021/12/02 10:25:35;;;;;;;;;;;;;;;;;;5098228;28;19916;-80
2021/12/02 10:28:08;;;;;;;;;;;;;;;;;;5095606;28;20139;-76
2021/12/02 10:30:34;;;;;;;;;;;;;;;;;;5092495;28;19939;-75
2021/12/02 10:32:59;;;;;;;;;;;;;;;;;;5093161;28;19916;-77
2021/12/02 10:35:38;;;;;;;;;;;;;;;;;;5093866;28;19922;-76
2021/12/02 10:38:03;;;;;;;;;;;;;;;;;;5093961;28;20003;-75
2021/12/02 10:40:29;;;;;;;;;;;;;;;;;;5078581;28;19947;-76
2021/12/02 10:42:54;;;;;;;;;;;;;;;;;;5093925;28;19955;-76
2021/12/02 10:45:21;;;;;;;;;;;;;;;;;;5094627;28;19920;-77
2021/12/02 10:47:47;;;;;;;;;;;;;;;;;;5094209;28;20006;-77
2021/12/02 10:50:13;;;;;;;;;;;;;;;;;;5094032;28;19952;-76
2021/12/02 10:52:41;;;;;;;;;;;;;;;;;;5094135;28;20277;-75
2021/12/02 10:55:09;;;;;;;;;;;;;;;;;;5094252;28;19916;-76
2021/12/02 10:57:38;;;;;;;;;;;;;;;;;;5092712;28;20353;-76
2021/12/02 11:00:05;;;;;;;;;;;;;;;;;;5093871;28;19916;-75
2021/12/02 11:02:35;;;;;;;;;;;;;;;;;;5093895;28;19920;-76
2021/12/02 11:05:03;;;;;;;;;;;;;;;;;;5093295;28;19966;-76
2021/12/02 11:07:30;;;;;;;;;;;;;;;;;;5093738;28;19924;-76
2021/12/02 11:09:56;;;;;;;;;;;;;;;;;;5092379;28;19935;-76
2021/12/02 11:12:26;;;;;;;;;;;;;;;;;;5092587;28;19924;-76
2021/12/02 11:15:01;;;;;;;;;;;;;;;;;;5093621;28;20414;-75
2021/12/02 11:17:31;;;;;;;;;;;;;;;;;;5092105;28;19974;-74
2021/12/02 11:19:58;;;;;;;;;;;;;;;;;;5093359;28;19924;-74
2021/12/02 11:22:24;;;;;;;;;;;;;;;;;;5093587;28;19916;-76
2021/12/02 11:24:50;;;;;;;;;;;;;;;;;;5093375;28;19916;-77
2021/12/02 11:27:18;;;;;;;;;;;;;;;;;;5093016;28;20293;-76
2021/12/02 11:29:49;;;;;;;;;;;;;;;;;;5093289;28;19927;-76
2021/12/02 11:32:29;;;;;;;;;;;;;;;;;;5091558;28;19916;-76
2021/12/02 11:34:59;;;;;;;;;;;;;;;;;;5097081;28;19916;-76
2021/12/02 11:37:25;;;;;;;;;;;;;;;;;;5096708;28;19939;-76
2021/12/02 11:39:50;;;;;;;;;;;;;;;;;;5096411;28;19916;-76
2021/12/02 11:42:16;;;;;;;;;;;;;;;;;;5096675;28;19923;-76
2021/12/02 11:44:42;;;;;;;;;;;;;;;;;;5096507;28;20015;-76
2021/12/02 11:47:07;;;;;;;;;;;;;;;;;;5096307;28;19924;-76
2021/12/02 11:49:34;;;;;;;;;;;;;;;;;;5096839;28;20400;-76
2021/12/02 11:51:59;;;;;;;;;;;;;;;;;;5096749;28;19916;-76
2021/12/02 11:54:24;;;;;;;;;;;;;;;;;;5095137;28;20377;-76
2021/12/02 11:56:50;;;;;;;;;;;;;;;;;;5096525;28;20382;-76
2021/12/02 11:59:16;;;;;;;;;;;;;;;;;;5096502;28;19984;-76
2021/12/02 12:01:43;;;;;;;;;;;;;;;;;;5104998;28;19916;-76
2021/12/02 12:04:10;;;;;;;;;;;;;;;;;;5108634;28;19961;-76
2021/12/02 12:06:38;;;;;;;;;;;;;;;;;;5096165;28;20374;-76
2021/12/02 12:09:10;;;;;;;;;;;;;;;;;;5096471;28;19920;-76
2021/12/02 12:11:36;;;;;;;;;;;;;;;;;;5097077;28;19916;-75
2021/12/02 12:14:06;;;;;;;;;;;;;;;;;;5096590;28;19927;-76
2021/12/02 12:16:31;;;;;;;;;;;;;;;;;;5096641;28;19920;-76
2021/12/02 12:19:13;;;;;;;;;;;;;;;;;;5096020;28;19916;-76
2021/12/02 12:21:39;;;;;;;;;;;;;;;;;;5096110;28;20460;-76
2021/12/02 12:24:06;;;;;;;;;;;;;;;;;;5096038;28;19955;-76
2021/12/02 12:26:35;;;;;;;;;;;;;;;;;;5095870;28;20003;-76
2021/12/02 12:32:02;;;;;;;;;;;;;;;;;;5095787;28;19916;-76
2021/12/02 12:34:30;;;;;;;;;;;;;;;;;;5087167;28;19916;-76
2021/12/02 12:36:57;;;;;;;;;;;;;;;;;;5095625;28;19916;-76
2021/12/02 12:39:24;;;;;;;;;;;;;;;;;;5094610;28;19912;-76
2021/12/02 12:42:08;;;;;;;;;;;;;;;;;;5095821;28;19959;-76
2021/12/02 12:44:46;;;;;;;;;;;;;;;;;;5094648;28;19920;-76
2021/12/02 12:47:11;;;;;;;;;;;;;;;;;;5095384;28;19920;-76
2021/12/02 12:49:37;;;;;;;;;;;;;;;;;;5095571;28;19920;-76
2021/12/02 12:52:13;;;;;;;;;;;;;;;;;;5094065;28;19916;-76
2021/12/02 12:54:38;;;;;;;;;;;;;;;;;;5095198;28;19946;-76
2021/12/02 12:57:05;;;;;;;;;;;;;;;;;;5095374;28;19924;-76
2021/12/02 12:59:46;;;;;;;;;;;;;;;;;;5095562;28;19951;-77
2021/12/02 13:02:13;;;;;;;;;;;;;;;;;;5093595;28;20011;-76
2021/12/02 13:04:52;;;;;;;;;;;;;;;;;;5095277;28;19992;-76
2021/12/02 13:07:18;;;;;;;;;;;;;;;;;;5082941;28;19920;-79
2021/12/02 13:09:48;;;;;;;;;;;;;;;;;;5079816;28;19928;-78
2021/12/02 13:12:19;;;;;;;;;;;;;;;;;;5081792;28;19948;-85
2021/12/02 13:14:45;;;;;;;;;;;;;;;;;;5064152;28;20488;-83
2021/12/02 13:17:29;;;;;;;;;;;;;;;;;;5080085;28;19927;-81
2021/12/02 13:19:56;;;;;;;;;;;;;;;;;;5078815;28;19920;-81
2021/12/02 13:22:21;;;;;;;;;;;;;;;;;;5079474;28;19916;-81
2021/12/02 13:24:47;;;;;;;;;;;;;;;;;;5078460;28;19916;-82
2021/12/02 13:27:12;;;;;;;;;;;;;;;;;;5078379;28;20353;-81
2021/12/02 13:29:37;;;;;;;;;;;;;;;;;;5078587;28;19924;-81
2021/12/02 13:32:04;;;;;;;;;;;;;;;;;;5060842;28;19916;-81
2021/12/02 13:34:31;;;;;;;;;;;;;;;;;;5078639;28;20331;-81
2021/12/02 13:37:10;;;;;;;;;;;;;;;;;;5078286;28;20397;-81
2021/12/02 13:39:40;;;;;;;;;;;;;;;;;;5097455;28;20313;-81
2021/12/02 13:42:07;;;;;;;;;;;;;;;;;;5098739;28;19923;-81
2021/12/02 13:44:38;;;;;;;;;;;;;;;;;;5096498;28;19943;-81
2021/12/02 13:47:08;;;;;;;;;;;;;;;;;;5098248;28;20378;-81
2021/12/02 13:49:37;;;;;;;;;;;;;;;;;;5098476;28;20358;-81
2021/12/02 13:52:31;;;;;;;;;;;;;;;;;;5098200;28;19922;-81
2021/12/02 13:55:04;;;;;;;;;;;;;;;;;;5097261;28;19916;-81
2021/12/02 13:57:45;;;;;;;;;;;;;;;;;;5096521;28;19916;-81
2021/12/02 14:00:12;;;;;;;;;;;;;;;;;;5096442;28;19916;-81
2021/12/02 14:02:38;;;;;;;;;;;;;;;;;;5097716;28;19916;-81
2021/12/02 14:05:05;;;;;;;;;;;;;;;;;;5096301;28;19923;-81
2021/12/02 14:07:33;;;;;;;;;;;;;;;;;;5097081;28;20278;-82
2021/12/02 14:09:59;;;;;;;;;;;;;;;;;;5098000;28;19912;-81
2021/12/02 14:12:28;;;;;;;;;;;;;;;;;;5096480;28;19916;-81
2021/12/02 14:14:54;;;;;;;;;;;;;;;;;;5097185;28;19923;-81
2021/12/02 14:17:19;;;;;;;;;;;;;;;;;;5079641;28;19922;-81
2021/12/02 14:20:02;;;;;;;;;;;;;;;;;;5096094;28;19916;-81
2021/12/02 14:22:28;;;;;;;;;;;;;;;;;;5084511;28;19938;-80
2021/12/02 14:24:53;;;;;;;;;;;;;;;;;;5102414;28;19916;-82
2021/12/02 14:27:18;;;;;;;;;;;;;;;;;;5094576;28;20417;-82
2021/12/02 14:29:44;;;;;;;;;;;;;;;;;;5093999;28;19955;-78
2021/12/02 14:32:12;;;;;;;;;;;;;;;;;;5075837;28;19963;-77
2021/12/02 14:34:37;;;;;;;;;;;;;;;;;;5086815;28;19916;-77
2021/12/02 14:37:05;;;;;;;;;;;;;;;;;;5096926;28;20064;-78
2021/12/02 14:39:37;;;;;;;;;;;;;;;;;;5097677;28;19924;-77
2021/12/02 14:42:03;;;;;;;;;;;;;;;;;;5095739;28;19916;-78
2021/12/02 14:44:29;;;;;;;;;;;;;;;;;;5096577;28;19927;-77
2021/12/02 14:46:58;;;;;;;;;;;;;;;;;;5096743;28;20369;-78
2021/12/02 14:52:04;;;;;;;;;;;;;;;;;;5097136;28;19916;-76
2021/12/02 14:54:37;;;;;;;;;;;;;;;;;;5095215;28;19923;-76
2021/12/02 14:57:04;;;;;;;;;;;;;;;;;;5095754;28;19912;-76
2021/12/02 14:59:30;;;;;;;;;;;;;;;;;;5095723;28;19916;-75
2021/12/02 15:02:00;;;;;;;;;;;;;;;;;;5095398;28;19916;-75
2021/12/02 15:04:27;;;;;;;;;;;;;;;;;;5093763;28;20015;-75
2021/12/02 15:06:53;;;;;;;;;;;;;;;;;;5095294;28;20728;-76
2021/12/02 15:09:28;;;;;;;;;;;;;;;;;;5100391;28;19912;-77
2021/12/02 15:11:54;;;;;;;;;;;;;;;;;;5102045;28;20008;-77
2021/12/02 15:14:39;;;;;;;;;;;;;;;;;;5103559;28;19911;-77
2021/12/02 15:17:05;;;;;;;;;;;;;;;;;;5103019;28;19923;-77
2021/12/02 15:19:48;;;;;;;;;;;;;;;;;;5103947;28;20346;-77
2021/12/02 15:22:27;;;;;;;;;;;;;;;;;;5104466;28;19923;-77
2021/12/02 15:25:03;;;;;;;;;;;;;;;;;;5104287;28;19916;-77
2021/12/02 15:27:28;;;;;;;;;;;;;;;;;;5101969;28;19959;-77
2021/12/02 15:29:53;;;;;;;;;;;;;;;;;;5104521;28;19934;-77
2021/12/02 15:32:19;;;;;;;;;;;;;;;;;;5117293;28;20003;-77
2021/12/02 15:34:44;;;;;;;;;;;;;;;;;;5126303;28;19922;-78
2021/12/02 15:37:10;;;;;;;;;;;;;;;;;;5124961;28;19916;-78
2021/12/02 15:39:35;;;;;;;;;;;;;;;;;;5106521;28;20005;-78
2021/12/02 15:42:01;;;;;;;;;;;;;;;;;;5105767;28;19919;-78
2021/12/02 15:44:29;;;;;;;;;;;;;;;;;;5099902;28;19977;-78
2021/12/02 15:47:00;;;;;;;;;;;;;;;;;;5098093;28;20006;-79
2021/12/02 15:49:26;;;;;;;;;;;;;;;;;;5094925;28;19959;-78
2021/12/02 15:51:53;;;;;;;;;;;;;;;;;;5093034;28;19916;-78
2021/12/02 15:54:19;;;;;;;;;;;;;;;;;;5094076;28;19957;-78
2021/12/02 15:56:46;;;;;;;;;;;;;;;;;;5097190;28;19923;-79
2021/12/02 15:59:12;;;;;;;;;;;;;;;;;;5095269;28;19995;-78
2021/12/02 16:01:44;;;;;;;;;;;;;;;;;;5095577;28;19966;-78
2021/12/02 16:04:16;;;;;;;;;;;;;;;;;;5092147;28;20278;-78
2021/12/02 16:07:22;;;;;;;;;;;;;;;;;;5090455;28;19920;-78
2021/12/02 16:14:40;;;;;;;;;;;;;;;;;;5098766;28;19951;-77
2021/12/02 16:17:05;;;;;;;;;;;;;;;;;;5099030;28;20381;-77
2021/12/02 16:19:31;;;;;;;;;;;;;;;;;;5098945;28;19927;-77
2021/12/02 16:21:56;;;;;;;;;;;;;;;;;;5100228;28;19916;-78
2021/12/02 16:24:21;;;;;;;;;;;;;;;;;;5101512;28;20012;-78
2021/12/02 16:26:47;;;;;;;;;;;;;;;;;;5102423;28;19923;-78
2021/12/02 16:29:12;;;;;;;;;;;;;;;;;;5104861;28;19951;-78
2021/12/02 16:31:37;;;;;;;;;;;;;;;;;;5104265;28;19951;-78
2021/12/02 16:34:03;;;;;;;;;;;;;;;;;;5105116;28;19945;-78
2021/12/02 16:36:28;;;;;;;;;;;;;;;;;;5106351;28;19916;-78
2021/12/02 16:38:54;;;;;;;;;;;;;;;;;;5106633;28;20085;-78
2021/12/02 16:41:19;;;;;;;;;;;;;;;;;;5104865;28;20391;-76
2021/12/02 16:43:44;;;;;;;;;;;;;;;;;;5100796;28;20007;-75
2021/12/02 16:46:10;;;;;;;;;;;;;;;;;;5099016;28;19916;-79
2021/12/02 16:48:36;;;;;;;;;;;;;;;;;;5095716;28;19924;-80
2021/12/02 16:51:01;;;;;;;;;;;;;;;;;;5077746;28;20296;-81
2021/12/02 16:53:29;;;;;;;;;;;;;;;;;;5078974;28;19923;-77
2021/12/02 16:55:54;;;;;;;;;;;;;;;;;;5078604;28;19923;-78
2021/12/02 16:58:19;;;;;;;;;;;;;;;;;;5078203;28;19916;-77
2021/12/02 17:00:45;;;;;;;;;;;;;;;;;;5079006;28;20011;-78
2021/12/02 17:03:11;;;;;;;;;;;;;;;;;;5076954;28;19926;-78
2021/12/02 17:05:37;;;;;;;;;;;;;;;;;;5116438;28;20296;-78
2021/12/02 17:08:03;;;;;;;;;;;;;;;;;;5118530;28;20390;-78
2021/12/02 17:10:28;;;;;;;;;;;;;;;;;;5118359;28;19911;-79
2021/12/02 17:12:55;;;;;;;;;;;;;;;;;;5122476;28;19916;-81
2021/12/02 17:15:22;;;;;;;;;;;;;;;;;;5123804;28;19915;-77
2021/12/02 17:17:51;;;;;;;;;;;;;;;;;;5116525;28;19923;-77
2021/12/02 17:20:17;;;;;;;;;;;;;;;;;;5091311;28;19949;-77